Time;durP1;ratioP1;P1;durP2;ratioP2;P2;SDS_P1;SDS_P2;PMS_P1;PMS_P2;Temp;Humidity;BMP_temperature;BMP_pressure;BME280_temperature;BME280_humidity;BME280_pressure;Samples;Min_cycle;Max_cycle;Signal;HPM_P1;HPM_P2
2022/06/16 00:01:56;;;;;;;3.22;1.88;;;18.80;91.90;;;;;;5012603;28;20030;-76
2022/06/16 00:04:23;;;;;;;4.07;2.10;;;18.70;91.90;;;;;;5011985;28;20034;-77
2022/06/16 00:06:48;;;;;;;4.72;2.10;;;18.70;91.90;;;;;;5013738;28;20104;-77
2022/06/16 00:09:14;;;;;;;3.58;2.10;;;18.70;91.90;;;;;;5012561;28;20478;-77
2022/06/16 00:11:39;;;;;;;4.30;2.05;;;18.70;91.90;;;;;;5011942;28;20025;-78
2022/06/16 00:14:05;;;;;;;4.70;2.00;;;18.70;91.90;;;;;;5013301;28;20068;-78
2022/06/16 00:16:32;;;;;;;3.50;1.88;;;18.70;91.90;;;;;;5012388;28;20034;-78
2022/06/16 00:18:57;;;;;;;3.45;1.92;;;18.70;91.90;;;;;;5011816;28;20472;-76
2022/06/16 00:21:23;;;;;;;3.08;2.08;;;18.80;91.90;;;;;;5012326;28;20033;-78
2022/06/16 00:23:48;;;;;;;3.53;2.00;;;18.70;91.90;;;;;;5011944;28;20053;-78
2022/06/16 00:26:17;;;;;;;3.35;2.05;;;18.80;91.80;;;;;;5012230;28;20079;-78
2022/06/16 00:28:43;;;;;;;2.95;1.80;;;18.80;91.80;;;;;;5012167;28;20061;-78
2022/06/16 00:31:10;;;;;;;3.30;2.10;;;18.80;91.70;;;;;;5012172;28;20527;-78
2022/06/16 00:33:36;;;;;;;2.65;1.77;;;18.80;91.90;;;;;;5013077;28;20036;-76
2022/06/16 00:36:02;;;;;;;3.13;2.08;;;18.80;91.60;;;;;;5013391;28;20037;-78
2022/06/16 00:38:27;;;;;;;2.90;1.75;;;18.80;91.60;;;;;;5011976;28;20026;-78
2022/06/16 00:40:53;;;;;;;4.45;2.00;;;18.80;91.60;;;;;;5011936;28;20076;-78
2022/06/16 00:43:18;;;;;;;3.55;1.88;;;18.80;91.70;;;;;;5012771;28;20105;-77
2022/06/16 00:45:59;;;;;;;3.22;2.10;;;18.80;91.80;;;;;;5011662;28;20026;-77
2022/06/16 00:48:33;;;;;;;3.33;1.85;;;18.70;92.10;;;;;;5014295;28;20025;-77
2022/06/16 00:51:09;;;;;;;2.33;1.70;;;18.70;91.80;;;;;;5013163;28;20037;-77
2022/06/16 00:53:36;;;;;;;3.90;2.00;;;18.70;91.80;;;;;;5012782;28;20446;-78
2022/06/16 00:56:02;;;;;;;2.60;1.83;;;18.70;91.90;;;;;;5011644;28;20026;-77
2022/06/16 00:58:29;;;;;;;3.30;2.17;;;18.70;91.90;;;;;;5012973;28;20037;-76
2022/06/16 01:00:55;;;;;;;3.22;1.95;;;18.70;91.90;;;;;;5011769;28;20030;-76
2022/06/16 01:06:21;;;;;;;3.05;1.95;;;18.70;91.80;;;;;;5012524;28;20427;-77
2022/06/16 01:08:51;;;;;;;3.63;2.30;;;18.70;91.80;;;;;;5012808;28;20700;-76
2022/06/16 01:14:39;;;;;;;3.63;1.92;;;18.70;91.90;;;;;;5013781;28;20045;-77
2022/06/16 01:17:18;;;;;;;3.22;2.00;;;18.70;91.80;;;;;;5003841;28;20285;-76
2022/06/16 01:20:06;;;;;;;3.75;1.98;;;18.70;91.80;;;;;;4991850;28;20022;-78
2022/06/16 01:22:31;;;;;;;2.83;1.88;;;18.70;91.80;;;;;;4992813;28;20435;-78
2022/06/16 01:25:11;;;;;;;3.38;1.92;;;18.80;91.70;;;;;;4992922;28;20018;-76
2022/06/16 01:27:55;;;;;;;2.97;1.90;;;18.80;91.60;;;;;;4992042;28;20045;-77
2022/06/16 01:30:35;;;;;;;4.00;1.88;;;18.80;91.50;;;;;;5009462;28;20072;-76
2022/06/16 01:33:19;;;;;;;4.35;2.05;;;18.80;91.50;;;;;;4992726;28;20471;-78
2022/06/16 01:35:48;;;;;;;3.88;2.00;;;18.80;91.60;;;;;;4991657;28;20041;-78
2022/06/16 01:38:36;;;;;;;3.55;1.95;;;18.80;91.50;;;;;;4992121;28;20521;-75
2022/06/16 01:41:20;;;;;;;3.30;1.92;;;18.70;91.60;;;;;;5011011;28;20026;-77
2022/06/16 01:43:59;;;;;;;3.35;1.95;;;18.70;91.70;;;;;;5007623;28;20091;-78
2022/06/16 01:46:32;;;;;;;3.50;1.95;;;18.70;91.80;;;;;;4991388;28;20062;-79
2022/06/16 01:49:04;;;;;;;2.92;1.95;;;18.70;91.80;;;;;;4991812;28;20733;-80
2022/06/16 01:51:38;;;;;;;3.17;1.95;;;18.70;91.80;;;;;;4991608;28;20026;-80
2022/06/16 01:54:20;;;;;;;3.25;1.90;;;18.70;91.80;;;;;;4991776;28;20023;-80
2022/06/16 01:56:53;;;;;;;4.05;2.20;;;18.70;91.90;;;;;;4991886;28;20492;-80
2022/06/16 01:59:24;;;;;;;2.63;1.75;;;18.70;91.90;;;;;;4991676;28;20129;-79
2022/06/16 02:01:56;;;;;;;2.67;1.65;;;18.70;91.90;;;;;;5002770;28;20444;-79
2022/06/16 02:04:51;;;;;;;3.50;2.00;;;18.70;91.90;;;;;;4991429;28;20026;-78
2022/06/16 02:07:29;;;;;;;3.13;1.92;;;18.70;91.90;;;;;;4991614;28;20030;-79
2022/06/16 02:09:58;;;;;;;3.33;1.95;;;18.60;91.80;;;;;;4991400;28;20510;-78
2022/06/16 02:15:25;;;;;;;;;;;18.60;91.80;;;;;;5007644;28;20096;-78
2022/06/16 02:17:52;;;;;;;3.13;1.90;;;18.70;91.80;;;;;;4992641;28;19972;-78
2022/06/16 02:20:19;;;;;;;2.60;1.63;;;18.70;91.80;;;;;;4991442;28;20029;-79
2022/06/16 02:22:45;;;;;;;2.53;1.70;;;18.70;91.70;;;;;;4995420;28;20065;-78
2022/06/16 02:25:10;;;;;;;3.65;2.10;;;18.80;91.70;;;;;;5030474;28;20068;-77
2022/06/16 02:27:36;;;;;;;3.70;1.83;;;18.80;91.60;;;;;;5031576;28;20034;-78
2022/06/16 02:30:02;;;;;;;2.53;1.75;;;18.80;91.60;;;;;;5014869;28;20033;-79
2022/06/16 02:32:59;;;;;;;3.58;1.80;;;18.70;91.60;;;;;;4998552;28;20542;-81
2022/06/16 02:35:36;;;;;;;3.40;1.90;;;18.80;91.60;;;;;;4996221;28;20034;-78
2022/06/16 02:38:38;;;;;;;2.45;1.70;;;18.70;91.70;;;;;;5012963;28;20487;-77
2022/06/16 02:41:18;;;;;;;3.38;1.98;;;18.70;91.80;;;;;;5015591;28;20072;-78
2022/06/16 02:43:56;;;;;;;2.75;1.77;;;18.70;91.80;;;;;;5014087;28;20030;-78
2022/06/16 02:46:38;;;;;;;2.92;1.65;;;18.70;91.80;;;;;;5007138;28;20117;-78
2022/06/16 02:49:26;;;;;;;2.67;1.90;;;18.70;91.80;;;;;;4994612;28;20407;-79
2022/06/16 02:52:05;;;;;;;3.13;1.80;;;18.60;91.80;;;;;;5008760;28;20087;-77
2022/06/16 02:55:10;;;;;;;3.75;2.00;;;18.70;91.80;;;;;;5013895;28;20766;-80
2022/06/16 02:57:46;;;;;;;3.15;1.90;;;18.60;91.80;;;;;;5015386;28;20034;-78
2022/06/16 03:00:17;;;;;;;4.47;2.10;;;18.60;91.80;;;;;;5014427;28;20041;-78
2022/06/16 03:02:43;;;;;;;3.67;1.90;;;18.60;91.80;;;;;;4994934;28;20018;-79
2022/06/16 03:05:12;;;;;;;3.50;2.00;;;18.60;91.90;;;;;;4994230;28;20085;-77
2022/06/16 03:07:38;;;;;;;4.25;1.83;;;18.60;91.70;;;;;;5007028;28;20026;-78
2022/06/16 03:10:05;;;;;;;2.58;1.85;;;18.60;91.80;;;;;;5013827;28;20030;-77
2022/06/16 03:12:31;;;;;;;2.75;1.85;;;18.60;91.80;;;;;;5014756;28;20037;-80
2022/06/16 03:14:56;;;;;;;2.53;1.77;;;18.70;91.80;;;;;;5013793;28;20394;-79
2022/06/16 03:17:22;;;;;;;2.72;1.75;;;18.70;91.70;;;;;;4997991;28;20030;-77
2022/06/16 03:19:47;;;;;;;2.85;1.70;;;18.70;91.70;;;;;;4994107;28;20113;-78
2022/06/16 03:22:13;;;;;;;2.45;1.80;;;18.80;91.60;;;;;;4994005;28;20033;-77
2022/06/16 03:24:40;;;;;;;3.70;1.98;;;18.70;91.60;;;;;;5006103;28;20026;-77
2022/06/16 03:27:06;;;;;;;3.05;1.88;;;18.70;91.60;;;;;;5013596;28;20410;-77
2022/06/16 03:29:32;;;;;;;2.83;1.63;;;18.70;91.50;;;;;;4999714;28;20027;-78
2022/06/16 03:31:58;;;;;;;2.40;1.70;;;18.70;91.60;;;;;;5009289;28;20029;-77
2022/06/16 03:34:24;;;;;;;2.90;1.90;;;18.70;91.70;;;;;;5013186;28;20036;-78
2022/06/16 03:36:51;;;;;;;2.67;1.88;;;18.70;91.80;;;;;;5013432;28;20033;-78
2022/06/16 03:39:16;;;;;;;3.22;1.73;;;18.70;91.80;;;;;;5013867;28;20076;-79
2022/06/16 03:41:42;;;;;;;2.92;1.85;;;18.70;91.80;;;;;;5013370;28;20023;-77
2022/06/16 03:44:08;;;;;;;3.33;1.80;;;18.60;91.80;;;;;;5011980;28;20528;-77
2022/06/16 03:46:33;;;;;;;3.38;1.90;;;18.60;91.80;;;;;;5014384;28;20034;-79
2022/06/16 03:48:59;;;;;;;4.35;2.10;;;18.60;92.00;;;;;;5013073;28;20395;-78
2022/06/16 03:51:25;;;;;;;2.80;1.77;;;18.60;91.80;;;;;;5012904;28;20038;-80
2022/06/16 03:53:50;;;;;;;2.85;1.70;;;18.60;91.60;;;;;;5014095;28;20645;-78
2022/06/16 03:56:16;;;;;;;2.75;1.90;;;18.60;91.80;;;;;;4994198;28;20026;-79
2022/06/16 03:58:41;;;;;;;2.78;1.77;;;18.60;91.70;;;;;;4993379;28;20554;-78
2022/06/16 04:01:07;;;;;;;3.92;1.83;;;18.60;91.80;;;;;;4993225;28;20145;-78
2022/06/16 04:06:17;;;;;;;3.58;1.98;;;18.60;91.80;;;;;;5013163;28;20152;-78
2022/06/16 04:08:44;;;;;;;3.08;1.98;;;18.60;91.70;;;;;;5012794;28;20029;-79
2022/06/16 04:11:28;;;;;;;2.42;1.65;;;18.70;91.80;;;;;;5014098;28;20022;-79
2022/06/16 04:13:57;;;;;;;2.65;1.80;;;18.70;91.70;;;;;;5012152;28;20048;-79
2022/06/16 04:16:23;;;;;;;2.75;1.88;;;18.70;91.60;;;;;;5010921;28;20044;-79
2022/06/16 04:18:49;;;;;;;2.60;1.75;;;18.70;91.50;;;;;;5005128;28;20022;-81
2022/06/16 04:21:15;;;;;;;2.90;1.90;;;18.70;91.50;;;;;;5013855;28;20033;-80
2022/06/16 04:23:40;;;;;;;2.80;1.80;;;18.70;91.80;;;;;;5012030;28;20029;-80
2022/06/16 04:26:06;;;;;;;2.80;1.80;;;18.70;91.50;;;;;;4995334;28;20157;-77
2022/06/16 04:28:32;;;;;;;3.33;1.90;;;18.70;91.60;;;;;;4993723;28;20030;-79
2022/06/16 04:30:58;;;;;;;2.90;1.80;;;18.70;91.70;;;;;;5007744;28;20518;-80
2022/06/16 04:33:24;;;;;;;3.15;1.85;;;18.70;91.70;;;;;;5011821;28;20117;-79
2022/06/16 04:35:50;;;;;;;2.65;1.70;;;18.70;91.70;;;;;;4998836;28;20519;-79
2022/06/16 04:38:16;;;;;;;3.28;1.92;;;18.60;91.70;;;;;;4993610;28;20463;-79
2022/06/16 04:40:41;;;;;;;2.78;1.77;;;18.60;91.70;;;;;;4993715;28;20065;-77
2022/06/16 04:43:07;;;;;;;3.28;1.95;;;18.60;91.70;;;;;;4992199;28;20027;-79
2022/06/16 04:45:33;;;;;;;2.65;1.80;;;18.60;91.60;;;;;;4992373;28;20034;-78
2022/06/16 04:47:58;;;;;;;3.38;1.98;;;18.60;91.70;;;;;;4993385;28;20066;-79
2022/06/16 04:50:24;;;;;;;2.80;1.77;;;18.60;91.70;;;;;;4991516;28;20431;-77
2022/06/16 04:52:49;;;;;;;3.10;1.70;;;18.60;91.70;;;;;;4993249;28;20411;-78
2022/06/16 04:55:16;;;;;;;3.45;2.00;;;18.60;91.70;;;;;;5002778;28;20112;-79
2022/06/16 04:57:41;;;;;;;3.28;2.00;;;18.60;91.70;;;;;;5011909;28;20037;-78
2022/06/16 05:00:10;;;;;;;3.20;1.90;;;18.60;91.60;;;;;;5013033;28;20022;-77
2022/06/16 05:02:36;;;;;;;2.97;1.90;;;18.60;91.60;;;;;;5011267;28;20029;-78
2022/06/16 05:05:02;;;;;;;2.60;1.50;;;18.70;91.60;;;;;;5005377;28;20019;-77
2022/06/16 05:07:27;;;;;;;3.13;1.92;;;18.70;91.60;;;;;;4993125;28;20105;-80
2022/06/16 05:09:53;;;;;;;2.70;1.80;;;18.60;91.60;;;;;;4993312;28;20058;-79
2022/06/16 05:12:18;;;;;;;2.92;1.90;;;18.70;91.50;;;;;;4993577;28;20108;-79
2022/06/16 05:14:44;;;;;;;3.10;2.00;;;18.70;91.50;;;;;;4994998;28;20030;-79
2022/06/16 05:17:09;;;;;;;3.65;2.00;;;18.70;91.40;;;;;;4994265;28;20044;-79
2022/06/16 05:19:35;;;;;;;3.10;1.88;;;18.70;91.40;;;;;;4995215;28;20045;-79
2022/06/16 05:22:05;;;;;;;2.53;1.73;;;18.70;91.40;;;;;;4993741;28;20057;-79
2022/06/16 05:24:31;;;;;;;2.70;1.90;;;18.70;91.40;;;;;;4991985;28;20057;-78
2022/06/16 05:26:56;;;;;;;4.18;2.00;;;18.70;91.50;;;;;;4991908;28;20058;-78
2022/06/16 05:29:22;;;;;;;3.20;1.77;;;18.70;91.50;;;;;;4997557;28;20018;-79
2022/06/16 05:31:47;;;;;;;3.17;1.90;;;18.70;91.60;;;;;;5011535;28;20026;-79
2022/06/16 05:34:13;;;;;;;3.63;1.90;;;18.70;91.60;;;;;;5012367;28;20470;-78
2022/06/16 05:36:39;;;;;;;3.80;1.98;;;18.70;91.60;;;;;;5012683;28;20022;-77
2022/06/16 05:39:04;;;;;;;3.22;1.90;;;18.70;91.90;;;;;;4997353;28;20018;-78
2022/06/16 05:41:30;;;;;;;2.60;1.77;;;18.70;91.60;;;;;;4991872;28;20022;-79
2022/06/16 05:43:56;;;;;;;3.30;1.70;;;18.60;91.60;;;;;;5006651;28;20408;-78
2022/06/16 05:46:23;;;;;;;3.08;1.90;;;18.60;91.60;;;;;;4992428;28;20030;-78
2022/06/16 05:48:50;;;;;;;2.35;1.65;;;18.70;91.60;;;;;;4991798;28;20050;-78
2022/06/16 05:51:16;;;;;;;3.45;2.00;;;18.70;91.50;;;;;;4999716;28;20487;-77
2022/06/16 05:53:42;;;;;;;2.30;1.58;;;18.60;91.40;;;;;;5012362;28;20038;-78
2022/06/16 05:56:08;;;;;;;3.17;1.67;;;18.70;91.40;;;;;;5011306;28;20030;-78
2022/06/16 05:58:34;;;;;;;3.55;1.90;;;18.70;91.50;;;;;;5012718;28;20028;-78
2022/06/16 06:01:00;;;;;;;2.70;1.80;;;18.70;91.50;;;;;;4992518;28;20507;-78
2022/06/16 06:03:26;;;;;;;2.75;1.80;;;18.70;91.40;;;;;;4996605;28;20113;-79
2022/06/16 06:05:51;;;;;;;2.90;1.80;;;18.80;91.30;;;;;;4996054;28;20029;-80
2022/06/16 06:16:35;;;;;;;2.28;1.70;;;18.80;91.10;;;;;;4996768;28;20033;-79
2022/06/16 06:19:23;;;;;;;3.22;1.80;;;18.80;91.10;;;;;;4995846;28;20505;-78
2022/06/16 06:22:11;;;;;;;2.95;1.63;;;18.80;91.20;;;;;;4997952;28;20018;-80
2022/06/16 06:24:42;;;;;;;2.45;1.70;;;18.80;91.20;;;;;;5004129;28;20030;-80
2022/06/16 06:27:11;;;;;;;;;;;18.80;91.20;;;;;;5013276;28;20042;-78
2022/06/16 06:29:36;;;;;;;2.90;1.98;;;18.80;91.20;;;;;;4996041;28;19956;-78
2022/06/16 06:32:02;;;;;;;2.60;1.80;;;18.80;91.30;;;;;;4995258;28;20403;-79
2022/06/16 06:34:29;;;;;;;2.50;1.67;;;18.70;91.20;;;;;;5000579;28;20025;-79
2022/06/16 06:36:55;;;;;;;3.53;1.95;;;18.80;91.20;;;;;;5016265;28;20092;-78
2022/06/16 06:39:20;;;;;;;2.97;1.80;;;18.80;91.20;;;;;;5015622;28;20458;-79
2022/06/16 06:41:46;;;;;;;2.20;1.55;;;18.80;91.10;;;;;;5015235;28;20545;-79
2022/06/16 06:44:11;;;;;;;2.80;1.70;;;18.80;91.00;;;;;;5011897;28;20030;-82
2022/06/16 06:46:37;;;;;;;3.05;1.77;;;18.80;90.90;;;;;;5002101;28;20085;-78
2022/06/16 06:49:03;;;;;;;2.72;1.80;;;18.80;90.90;;;;;;5004806;28;20025;-78
2022/06/16 06:51:30;;;;;;;2.70;1.70;;;18.80;90.90;;;;;;5011256;28;20023;-78
2022/06/16 06:53:56;;;;;;;4.43;2.13;;;18.80;91.00;;;;;;4997584;28;20486;-78
2022/06/16 06:56:22;;;;;;;2.33;1.58;;;18.90;91.10;;;;;;5015079;28;20030;-76
2022/06/16 06:58:48;;;;;;;2.40;1.70;;;18.90;91.00;;;;;;5014008;28;20028;-76
2022/06/16 07:01:13;;;;;;;3.08;1.90;;;18.90;91.10;;;;;;4996109;28;20022;-77
2022/06/16 07:03:39;;;;;;;3.60;1.88;;;19.00;90.70;;;;;;4994240;28;20057;-78
2022/06/16 07:06:05;;;;;;;5.13;1.90;;;19.00;90.60;;;;;;4994768;28;20483;-77
2022/06/16 07:08:31;;;;;;;4.25;1.95;;;19.00;90.50;;;;;;4994613;28;20506;-77
2022/06/16 07:10:56;;;;;;;4.60;1.70;;;19.00;90.40;;;;;;4996261;28;20034;-77
2022/06/16 07:13:23;;;;;;;3.33;1.60;;;19.00;90.30;;;;;;4993118;28;20376;-78
2022/06/16 07:15:48;;;;;;;2.80;1.65;;;19.00;90.40;;;;;;4994623;28;20109;-78
2022/06/16 07:18:14;;;;;;;6.57;2.20;;;18.90;90.30;;;;;;4994323;28;20121;-78
2022/06/16 07:20:40;;;;;;;3.13;1.88;;;19.00;90.30;;;;;;4994185;28;20022;-79
2022/06/16 07:23:06;;;;;;;4.85;1.80;;;19.00;90.30;;;;;;4993910;28;20033;-77
2022/06/16 07:25:31;;;;;;;4.03;1.80;;;19.00;90.30;;;;;;4994484;28;20026;-77
2022/06/16 07:27:58;;;;;;;5.07;1.92;;;19.00;90.30;;;;;;4994822;28;20046;-77
2022/06/16 07:30:24;;;;;;;4.55;2.03;;;19.00;90.40;;;;;;4994803;28;20037;-77
2022/06/16 07:32:50;;;;;;;3.65;1.95;;;19.00;90.40;;;;;;4994650;28;20479;-78
2022/06/16 07:35:19;;;;;;;4.78;1.90;;;19.00;90.40;;;;;;4995597;28;20113;-78
2022/06/16 07:37:45;;;;;;;4.00;1.92;;;19.00;90.20;;;;;;4994546;28;20026;-80
2022/06/16 07:40:12;;;;;;;4.10;1.80;;;19.00;90.30;;;;;;4994458;28;20080;-77
2022/06/16 07:42:38;;;;;;;3.40;1.73;;;19.00;90.30;;;;;;4993987;28;20023;-79
2022/06/16 07:45:04;;;;;;;4.65;1.88;;;19.00;90.30;;;;;;4994164;28;20074;-78
2022/06/16 07:47:30;;;;;;;6.00;2.10;;;19.00;90.40;;;;;;4993966;28;20038;-79
2022/06/16 07:49:56;;;;;;;4.22;2.17;;;19.00;90.40;;;;;;4995445;28;20033;-78
2022/06/16 07:52:22;;;;;;;4.53;2.10;;;19.00;90.30;;;;;;4994144;28;20152;-78
2022/06/16 07:54:49;;;;;;;4.60;2.05;;;19.10;90.30;;;;;;4994262;28;20025;-79
2022/06/16 07:57:15;;;;;;;4.53;2.03;;;19.20;90.20;;;;;;4994352;28;20022;-79
2022/06/16 07:59:40;;;;;;;3.45;1.90;;;19.20;90.10;;;;;;4994370;28;20033;-80
2022/06/16 08:02:06;;;;;;;3.53;1.83;;;19.20;90.00;;;;;;4994038;28;20026;-78
2022/06/16 08:04:32;;;;;;;3.10;2.00;;;19.20;90.00;;;;;;4994953;28;20053;-77
2022/06/16 08:07:00;;;;;;;3.83;2.10;;;19.20;89.90;;;;;;4995491;28;20046;-77
2022/06/16 08:09:27;;;;;;;4.57;2.15;;;19.20;89.80;;;;;;4995507;28;20468;-78
2022/06/16 08:12:05;;;;;;;2.97;2.00;;;19.20;89.70;;;;;;4993821;28;20034;-77
2022/06/16 08:14:31;;;;;;;5.38;2.15;;;19.20;89.60;;;;;;4993175;28;20026;-77
2022/06/16 08:16:57;;;;;;;4.47;2.33;;;19.20;89.70;;;;;;4993115;28;20030;-76
2022/06/16 08:19:23;;;;;;;3.20;1.90;;;19.20;89.40;;;;;;4993003;28;20068;-77
2022/06/16 08:21:49;;;;;;;4.13;2.40;;;19.20;89.50;;;;;;4994734;28;20097;-78
2022/06/16 08:24:15;;;;;;;3.45;2.17;;;19.30;89.60;;;;;;4993776;28;20022;-73
2022/06/16 08:26:41;;;;;;;4.75;2.38;;;19.30;89.70;;;;;;4994316;28;20041;-78
2022/06/16 08:29:10;;;;;;;5.00;2.40;;;19.30;89.70;;;;;;4995584;28;20030;-78
2022/06/16 08:31:36;;;;;;;4.65;2.25;;;19.30;89.70;;;;;;4995714;28;20031;-77
2022/06/16 08:34:01;;;;;;;4.03;2.40;;;19.30;89.70;;;;;;4993636;28;20495;-79
2022/06/16 08:36:27;;;;;;;3.50;2.20;;;19.30;89.70;;;;;;4993334;28;20034;-79
2022/06/16 08:38:52;;;;;;;3.88;2.20;;;19.30;89.60;;;;;;4993740;28;20054;-77
2022/06/16 08:41:26;;;;;;;3.92;2.40;;;19.40;89.60;;;;;;4993699;28;20018;-78
2022/06/16 08:44:10;;;;;;;3.50;2.03;;;19.40;89.60;;;;;;4996062;28;20022;-78
2022/06/16 08:46:44;;;;;;;3.95;2.10;;;19.40;89.60;;;;;;4993533;28;20029;-80
2022/06/16 08:49:39;;;;;;;4.60;2.53;;;19.40;89.40;;;;;;4993139;28;20065;-79
2022/06/16 08:52:21;;;;;;;5.15;2.40;;;19.40;89.20;;;;;;4993772;28;20403;-78
2022/06/16 08:54:55;;;;;;;3.63;2.28;;;19.50;89.00;;;;;;4993685;28;20018;-78
2022/06/16 08:57:51;;;;;;;3.67;2.20;;;19.60;88.90;;;;;;4993583;28;20026;-78
2022/06/16 09:00:32;;;;;;;3.65;2.10;;;19.50;88.60;;;;;;4992486;28;20377;-77
2022/06/16 09:03:22;;;;;;;4.20;2.00;;;19.50;88.40;;;;;;4991938;28;20051;-77
2022/06/16 09:06:12;;;;;;;4.03;1.95;;;19.60;88.10;;;;;;4993182;28;20022;-77
2022/06/16 09:08:57;;;;;;;;;;;19.50;88.10;;;;;;4992805;28;20022;-78
2022/06/16 09:11:43;;;;;;;4.57;2.40;;;19.60;88.40;;;;;;4992184;28;19906;-77
2022/06/16 09:17:39;;;;;;;4.57;2.25;;;19.60;88.60;;;;;;4993451;28;20534;-76
2022/06/16 09:20:22;;;;;;;3.50;2.05;;;19.60;88.70;;;;;;4991741;28;20034;-77
2022/06/16 09:23:15;;;;;;;5.13;2.17;;;19.50;88.60;;;;;;4991434;28;20053;-77
2022/06/16 09:25:57;;;;;;;4.18;2.35;;;19.60;88.70;;;;;;4991516;28;20022;-76
2022/06/16 09:28:35;;;;;;;3.67;2.08;;;19.60;88.70;;;;;;4991395;28;20567;-77
2022/06/16 09:31:04;;;;;;;3.13;1.92;;;19.60;88.60;;;;;;4991530;28;20031;-76
2022/06/16 09:33:42;;;;;;;4.22;2.10;;;19.60;88.60;;;;;;4991335;28;20038;-76
2022/06/16 09:36:16;;;;;;;3.22;1.90;;;19.60;88.60;;;;;;4992097;28;20036;-76
2022/06/16 09:38:46;;;;;;;3.35;2.17;;;19.60;88.50;;;;;;5000479;28;20565;-79
2022/06/16 09:44:12;;;;;;;3.72;2.10;;;19.60;88.40;;;;;;5007678;28;20046;-80
2022/06/16 09:46:45;;;;;;;3.42;1.98;;;19.70;88.10;;;;;;4998312;28;20033;-76
2022/06/16 09:49:16;;;;;;;3.75;1.98;;;19.70;87.90;;;;;;4995298;28;20046;-75
2022/06/16 09:51:58;;;;;;;3.63;1.80;;;19.80;87.80;;;;;;4997665;28;20038;-75
2022/06/16 09:54:36;;;;;;;3.92;1.83;;;19.80;87.60;;;;;;5013089;28;20565;-76
2022/06/16 09:57:20;;;;;;;4.63;1.90;;;19.80;87.40;;;;;;5009547;28;20034;-76
2022/06/16 10:00:19;;;;;;;2.90;1.75;;;19.80;87.10;;;;;;5013304;28;20403;-76
2022/06/16 10:02:53;;;;;;;3.40;1.90;;;19.80;87.30;;;;;;5013525;28;20594;-76
2022/06/16 10:05:47;;;;;;;3.83;1.90;;;19.80;87.50;;;;;;5011350;28;20269;-76
2022/06/16 10:08:29;;;;;;;2.85;1.70;;;19.70;88.20;;;;;;5012225;28;20100;-76
2022/06/16 10:11:13;;;;;;;3.10;1.90;;;19.70;87.80;;;;;;5000154;28;20030;-75
2022/06/16 10:13:53;;;;;;;3.58;1.80;;;19.70;88.40;;;;;;4997079;28;20052;-76
2022/06/16 10:16:26;;;;;;;3.83;1.63;;;19.80;87.90;;;;;;5013285;28;20029;-77
2022/06/16 10:18:52;;;;;;;2.60;1.60;;;19.70;87.90;;;;;;5013175;28;20037;-76
2022/06/16 10:21:17;;;;;;;3.30;1.90;;;19.80;88.10;;;;;;4994023;28;20041;-76
2022/06/16 10:23:49;;;;;;;4.88;1.85;;;19.80;88.00;;;;;;5020376;28;20028;-77
2022/06/16 10:26:14;;;;;;;;;;;19.70;88.10;;;;;;5001196;28;20033;-76
2022/06/16 10:29:19;;;;;;;4.30;1.70;;;19.80;88.10;;;;;;4994428;28;20353;-76
2022/06/16 10:31:48;;;;;;;2.72;1.63;;;19.80;88.00;;;;;;5010381;28;20399;-76
2022/06/16 10:34:32;;;;;;;3.88;2.00;;;19.80;88.00;;;;;;5012346;28;20022;-75
2022/06/16 10:37:08;;;;;;;4.03;1.80;;;19.80;88.10;;;;;;5001058;28;20420;-75
2022/06/16 10:40:00;;;;;;;3.10;1.80;;;19.80;88.00;;;;;;5013227;28;20387;-76
2022/06/16 10:42:29;;;;;;;3.35;1.73;;;19.80;88.00;;;;;;4993473;28;20027;-75
2022/06/16 10:45:03;;;;;;;4.15;1.75;;;19.80;87.80;;;;;;4993847;28;20507;-76
2022/06/16 10:47:35;;;;;;;2.28;1.65;;;19.80;87.70;;;;;;4994492;28;20089;-76
2022/06/16 10:50:06;;;;;;;3.25;1.58;;;19.80;87.60;;;;;;5005397;28;20037;-75
2022/06/16 10:52:39;;;;;;;3.65;1.65;;;19.80;87.60;;;;;;4997968;28;20534;-76
2022/06/16 10:55:11;;;;;;;3.75;1.30;;;19.90;87.20;;;;;;5002271;28;20510;-76
2022/06/16 10:57:49;;;;;;;3.15;1.60;;;19.80;87.20;;;;;;5012944;28;20060;-75
2022/06/16 11:00:19;;;;;;;4.25;1.50;;;19.80;87.60;;;;;;5009319;28;20033;-77
2022/06/16 11:03:10;;;;;;;3.28;1.40;;;19.80;87.60;;;;;;4996898;28;20424;-75
2022/06/16 11:05:55;;;;;;;2.45;1.55;;;19.80;87.80;;;;;;5005477;28;20628;-77
2022/06/16 11:08:23;;;;;;;3.20;1.90;;;19.80;88.10;;;;;;5001072;28;20075;-75
2022/06/16 11:10:59;;;;;;;2.40;1.70;;;19.80;88.30;;;;;;5004695;28;20045;-75
2022/06/16 11:13:48;;;;;;;2.75;1.58;;;19.70;88.20;;;;;;5002792;28;20022;-75
2022/06/16 11:16:30;;;;;;;2.92;1.63;;;19.70;88.30;;;;;;5002692;28;20037;-76
2022/06/16 11:18:58;;;;;;;3.10;1.65;;;19.70;88.30;;;;;;5002776;28;20026;-77
2022/06/16 11:21:28;;;;;;;2.63;1.60;;;19.70;88.40;;;;;;5002313;28;20558;-75
2022/06/16 11:23:56;;;;;;;2.67;1.60;;;19.70;88.40;;;;;;5003380;28;20030;-76
2022/06/16 11:26:29;;;;;;;2.85;1.50;;;19.70;88.40;;;;;;5003657;28;20110;-76
2022/06/16 11:29:11;;;;;;;2.95;1.80;;;19.70;88.90;;;;;;4999920;28;20025;-75
2022/06/16 11:31:41;;;;;;;2.95;1.50;;;19.70;88.50;;;;;;5000981;28;20046;-75
2022/06/16 11:34:27;;;;;;;1.77;1.27;;;19.70;88.40;;;;;;4999141;28;20110;-75
2022/06/16 11:37:08;;;;;;;3.28;1.52;;;19.80;88.40;;;;;;5006083;28;20031;-75
2022/06/16 11:40:07;;;;;;;3.90;1.70;;;19.80;88.20;;;;;;5003032;28;20018;-76
2022/06/16 11:43:26;;;;;;;4.07;1.60;;;19.70;88.00;;;;;;5005657;28;20115;-77
2022/06/16 11:46:43;;;;;;;5.03;1.63;;;19.80;87.90;;;;;;4989059;28;20104;-75
2022/06/16 11:49:41;;;;;;;3.92;1.40;;;19.80;87.70;;;;;;4943868;28;20039;-78
2022/06/16 11:52:38;;;;;;;2.28;1.30;;;19.80;87.50;;;;;;5003444;28;20025;-77
2022/06/16 11:55:29;;;;;;;2.35;1.30;;;19.80;87.50;;;;;;5004672;28;20037;-81
2022/06/16 11:58:37;;;;;;;2.78;1.50;;;19.70;87.50;;;;;;4999943;28;20399;-80
2022/06/16 12:01:13;;;;;;;2.33;1.38;;;19.70;87.70;;;;;;5011899;28;20386;-78
2022/06/16 12:03:41;;;;;;;2.80;1.67;;;19.70;88.20;;;;;;5013314;28;20076;-78
2022/06/16 12:06:44;;;;;;;2.70;1.60;;;19.70;88.50;;;;;;4999165;28;20026;-78
2022/06/16 12:09:43;;;;;;;4.00;1.50;;;19.70;88.40;;;;;;4996076;28;20030;-77
2022/06/16 12:12:35;;;;;;;3.03;1.60;;;19.60;88.40;;;;;;4999223;28;20038;-77
2022/06/16 12:15:25;;;;;;;2.92;1.40;;;19.60;88.60;;;;;;5011905;28;20030;-76
2022/06/16 12:17:53;;;;;;;3.17;1.52;;;19.60;88.60;;;;;;5003016;28;20022;-78
2022/06/16 12:21:10;;;;;;;3.28;1.30;;;19.60;88.80;;;;;;4992352;28;20034;-78
2022/06/16 12:23:43;;;;;;;3.25;1.60;;;19.60;88.90;;;;;;4976098;28;20038;-77
2022/06/16 12:26:24;;;;;;;2.22;1.40;;;19.60;88.90;;;;;;4993893;28;20030;-78
2022/06/16 12:29:11;;;;;;;2.35;1.35;;;19.60;89.00;;;;;;4992701;28;20023;-77
2022/06/16 12:31:36;;;;;;;2.92;1.60;;;19.60;88.90;;;;;;4992864;28;20022;-78
2022/06/16 12:34:27;;;;;;;2.75;1.30;;;19.60;88.70;;;;;;4992020;28;20026;-77
2022/06/16 12:37:02;;;;;;;2.67;1.40;;;19.70;88.60;;;;;;4993725;28;20038;-77
2022/06/16 12:39:44;;;;;;;3.10;1.50;;;19.70;88.50;;;;;;4992629;28;20027;-77
2022/06/16 12:42:13;;;;;;;3.58;1.55;;;19.70;88.30;;;;;;4992274;28;20032;-78
2022/06/16 12:44:58;;;;;;;2.67;1.40;;;19.70;88.20;;;;;;4992068;28;20483;-77
2022/06/16 12:47:31;;;;;;;3.25;1.55;;;19.70;88.10;;;;;;4992062;28;20057;-78
2022/06/16 12:50:04;;;;;;;2.17;1.50;;;19.60;88.00;;;;;;4993463;28;20730;-77
2022/06/16 12:52:38;;;;;;;2.72;1.50;;;19.60;88.00;;;;;;4991781;28;20089;-77
2022/06/16 12:55:11;;;;;;;2.65;1.50;;;19.60;88.10;;;;;;5008292;28;20022;-78
2022/06/16 12:57:45;;;;;;;3.17;1.55;;;19.60;88.40;;;;;;4992072;28;20031;-77
2022/06/16 13:00:18;;;;;;;2.10;1.25;;;19.50;88.60;;;;;;4993112;28;20415;-77
2022/06/16 13:03:05;;;;;;;2.53;1.42;;;19.50;88.80;;;;;;4991683;28;20109;-76
2022/06/16 13:05:31;;;;;;;3.58;1.40;;;19.50;88.80;;;;;;4981470;28;20162;-77
2022/06/16 13:07:59;;;;;;;2.28;1.40;;;19.50;89.10;;;;;;4992796;28;20419;-78
2022/06/16 13:10:25;;;;;;;2.10;1.45;;;19.50;89.20;;;;;;4992000;28;20403;-78
2022/06/16 13:12:56;;;;;;;3.15;1.67;;;19.50;89.40;;;;;;4991623;28;20057;-78
2022/06/16 13:15:30;;;;;;;2.83;1.40;;;19.50;89.40;;;;;;4991797;28;20034;-78
2022/06/16 13:18:01;;;;;;;3.47;1.45;;;19.50;89.40;;;;;;4991931;28;20558;-77
2022/06/16 13:20:31;;;;;;;4.72;1.63;;;19.50;89.40;;;;;;4991972;28;20022;-77
2022/06/16 13:23:15;;;;;;;2.35;1.42;;;19.50;89.50;;;;;;4991419;28;20027;-78
2022/06/16 13:25:43;;;;;;;2.88;1.50;;;19.40;89.50;;;;;;4991723;28;20029;-78
2022/06/16 13:28:31;;;;;;;4.00;1.58;;;19.50;89.60;;;;;;4991939;28;20033;-78
2022/06/16 13:31:18;;;;;;;2.03;1.58;;;19.50;89.30;;;;;;4991530;28;20029;-78
2022/06/16 13:33:52;;;;;;;3.42;1.50;;;19.50;89.10;;;;;;4991453;28;20035;-78
2022/06/16 13:36:24;;;;;;;3.67;1.50;;;19.60;89.00;;;;;;4991649;28;20484;-77
2022/06/16 13:38:52;;;;;;;3.80;1.40;;;19.60;88.90;;;;;;4991524;28;20026;-77
2022/06/16 13:41:34;;;;;;;2.80;1.55;;;19.50;88.80;;;;;;4991677;28;20026;-77
2022/06/16 13:44:19;;;;;;;1.80;1.38;;;19.50;88.70;;;;;;4991034;28;20110;-78